createdAt,value
2022-09-21T00:00:17.531Z,0.20
2022-09-21T00:01:17.671Z,0.10
2022-09-21T00:02:17.525Z,0.20
2022-09-21T00:03:17.497Z,0.10
2022-09-21T00:04:17.480Z,0.20
2022-09-21T00:05:17.470Z,0.20
2022-09-21T00:06:17.455Z,0.20
2022-09-21T00:07:17.445Z,0.20
2022-09-21T00:09:17.419Z,0.20
2022-09-21T00:10:17.406Z,0.10
2022-09-21T00:11:17.393Z,0.20
2022-09-21T00:12:17.383Z,0.20
2022-09-21T00:13:17.368Z,0.20
2022-09-21T00:14:17.357Z,0.20
2022-09-21T00:15:17.365Z,0.20
2022-09-21T00:16:17.401Z,0.20
2022-09-21T00:17:17.318Z,0.20
2022-09-21T00:18:17.307Z,0.10
2022-09-21T00:20:17.286Z,0.20
2022-09-21T00:21:17.267Z,0.20
2022-09-21T00:22:17.257Z,0.20
2022-09-21T00:23:17.243Z,0.10
2022-09-21T00:24:17.235Z,0.20
2022-09-21T00:25:17.218Z,0.10
2022-09-21T00:26:17.207Z,0.20
2022-09-21T00:27:17.193Z,0.20
2022-09-21T00:28:17.181Z,0.20
2022-09-21T00:29:17.166Z,0.20
2022-09-21T00:31:17.286Z,0.20
2022-09-21T00:32:17.129Z,0.20
2022-09-21T00:33:17.116Z,0.10
2022-09-21T00:34:17.106Z,0.20
2022-09-21T00:35:17.093Z,0.10
2022-09-21T00:36:17.079Z,0.20
2022-09-21T00:37:17.065Z,0.20
2022-09-21T00:38:17.055Z,0.20
2022-09-21T00:39:17.044Z,0.20
2022-09-21T00:40:17.076Z,0.20
2022-09-21T00:42:17.004Z,0.20
2022-09-21T00:43:16.990Z,0.10
2022-09-21T00:44:16.983Z,0.20
2022-09-21T00:45:16.965Z,0.10
2022-09-21T00:46:16.954Z,0.10
2022-09-21T00:47:16.963Z,0.20
2022-09-21T00:48:16.931Z,0.10
2022-09-21T00:49:16.917Z,0.20
2022-09-21T00:50:16.905Z,0.10
2022-09-21T00:51:16.893Z,0.10
2022-09-21T00:53:16.868Z,0.10
2022-09-21T00:54:16.856Z,0.20
2022-09-21T00:55:16.841Z,0.10
2022-09-21T00:56:16.830Z,0.10
2022-09-21T00:57:16.816Z,0.20
2022-09-21T00:58:16.805Z,0.20
2022-09-21T00:59:19.890Z,0.20
2022-09-21T01:00:16.781Z,0.10
2022-09-21T01:01:16.813Z,0.20
2022-09-21T01:02:16.857Z,0.20
2022-09-21T01:04:16.730Z,0.20
2022-09-21T01:05:16.717Z,0.10
2022-09-21T01:06:16.704Z,0.20
2022-09-21T01:07:16.693Z,0.20
2022-09-21T01:08:16.681Z,0.20
2022-09-21T01:09:16.667Z,0.20
2022-09-21T01:10:16.657Z,0.10
2022-09-21T01:11:16.642Z,0.20
2022-09-21T01:12:16.631Z,0.10
2022-09-21T01:13:16.617Z,0.10
2022-09-21T01:15:16.592Z,0.10
2022-09-21T01:16:16.628Z,0.20
2022-09-21T01:17:16.567Z,0.20
2022-09-21T01:18:16.554Z,0.10
2022-09-21T01:19:16.565Z,0.20
2022-09-21T01:20:16.536Z,0.10
2022-09-21T01:21:16.517Z,0.20
2022-09-21T01:22:16.505Z,0.20
2022-09-21T01:23:16.490Z,0.20
2022-09-21T01:24:16.478Z,0.20
2022-09-21T01:26:16.454Z,0.20
2022-09-21T01:27:16.440Z,0.20
2022-09-21T01:28:16.431Z,0.10
2022-09-21T01:29:16.414Z,0.20
2022-09-21T01:30:16.404Z,0.20
2022-09-21T01:31:16.447Z,0.20
2022-09-21T01:32:16.382Z,0.20
2022-09-21T01:33:16.364Z,0.20
2022-09-21T01:34:16.357Z,0.30
2022-09-21T01:35:16.480Z,0.20
2022-09-21T01:37:16.313Z,0.20
2022-09-21T01:38:16.301Z,0.20
2022-09-21T01:39:16.287Z,0.20
2022-09-21T01:40:16.296Z,0.20
2022-09-21T01:41:16.262Z,0.20
2022-09-21T01:42:16.251Z,0.10
2022-09-21T01:43:16.240Z,0.20
2022-09-21T01:44:16.224Z,0.20
2022-09-21T01:45:16.211Z,0.20
2022-09-21T01:46:16.200Z,0.20
2022-09-21T01:48:16.174Z,0.20
2022-09-21T01:49:16.163Z,0.10
2022-09-21T01:50:16.150Z,0.10
2022-09-21T01:51:16.160Z,0.10
2022-09-21T01:52:16.124Z,0.10
2022-09-21T01:53:16.110Z,0.20
2022-09-21T01:54:16.100Z,0.10
2022-09-21T01:55:16.086Z,0.20
2022-09-21T01:56:16.074Z,0.10
2022-09-21T01:57:16.064Z,0.20
2022-09-21T01:59:16.036Z,0.10
2022-09-21T02:00:16.031Z,0.20
2022-09-21T02:01:16.085Z,0.10
2022-09-21T02:02:16.122Z,0.20
2022-09-21T02:03:15.984Z,0.10
2022-09-21T02:04:15.978Z,0.20
2022-09-21T02:05:15.961Z,0.20
2022-09-21T02:06:15.949Z,0.10
2022-09-21T02:07:15.956Z,0.20
2022-09-21T02:08:15.923Z,0.20
2022-09-21T02:10:15.899Z,0.10
2022-09-21T02:11:15.885Z,0.20
2022-09-21T02:12:19.113Z,0.20
2022-09-21T02:13:15.860Z,0.20
2022-09-21T02:14:15.848Z,0.20
2022-09-21T02:15:15.849Z,0.10
2022-09-21T02:16:15.851Z,0.20
2022-09-21T02:17:15.809Z,0.10
2022-09-21T02:18:15.798Z,0.20
2022-09-21T02:19:15.782Z,0.20
2022-09-21T02:21:15.760Z,0.20
2022-09-21T02:22:15.746Z,0.10
2022-09-21T02:23:15.755Z,0.20
2022-09-21T02:24:15.720Z,0.20
2022-09-21T02:25:15.708Z,0.20
2022-09-21T02:26:15.696Z,0.20
2022-09-21T02:27:15.682Z,0.20
2022-09-21T02:28:15.670Z,0.20
2022-09-21T02:29:15.656Z,0.10
2022-09-21T02:30:15.653Z,0.20
2022-09-21T02:32:15.620Z,0.20
2022-09-21T02:33:15.606Z,0.20
2022-09-21T02:34:15.595Z,0.20
2022-09-21T02:35:15.583Z,0.20
2022-09-21T02:36:15.570Z,0.20
2022-09-21T02:37:15.558Z,0.20
2022-09-21T02:38:15.544Z,0.20
2022-09-21T02:39:15.554Z,0.10
2022-09-21T02:40:15.590Z,0.20
2022-09-21T02:41:15.506Z,0.10
2022-09-21T02:43:15.479Z,0.20
2022-09-21T02:44:15.471Z,0.20
2022-09-21T02:45:15.457Z,0.20
2022-09-21T02:46:15.520Z,0.20
2022-09-21T02:47:15.435Z,0.10
2022-09-21T02:48:15.419Z,0.20
2022-09-21T02:49:15.404Z,0.20
2022-09-21T02:50:15.396Z,0.20
2022-09-21T02:51:15.379Z,0.20
2022-09-21T02:52:15.368Z,0.10
2022-09-21T02:54:15.343Z,0.20
2022-09-21T02:55:15.352Z,0.20
2022-09-21T02:56:15.317Z,0.20
2022-09-21T02:57:15.305Z,0.20
2022-09-21T02:58:15.292Z,0.20
2022-09-21T02:59:15.279Z,0.20
2022-09-21T03:00:15.268Z,0.20
2022-09-21T03:01:15.254Z,0.20
2022-09-21T03:02:15.290Z,0.20
2022-09-21T03:03:15.229Z,0.20
2022-09-21T03:05:15.205Z,0.20
2022-09-21T03:06:15.194Z,0.20
2022-09-21T03:07:15.180Z,0.20
2022-09-21T03:08:15.170Z,0.20
2022-09-21T03:09:15.154Z,0.20
2022-09-21T03:10:15.142Z,0.20
2022-09-21T03:11:15.152Z,0.20
2022-09-21T03:12:15.117Z,0.20
2022-09-21T03:13:15.104Z,0.20
2022-09-21T03:14:15.092Z,0.10
2022-09-21T03:16:15.102Z,0.20
2022-09-21T03:17:15.054Z,0.20
2022-09-21T03:18:15.055Z,0.20
2022-09-21T03:19:15.034Z,0.10
2022-09-21T03:20:15.015Z,0.20
2022-09-21T03:21:15.000Z,0.20
2022-09-21T03:22:14.990Z,0.20
2022-09-21T03:23:14.976Z,0.20
2022-09-21T03:24:14.965Z,0.20
2022-09-21T03:25:14.950Z,0.20
2022-09-21T03:27:14.948Z,0.20
2022-09-21T03:28:14.921Z,0.10
2022-09-21T03:29:14.899Z,0.20
2022-09-21T03:30:14.887Z,0.20
2022-09-21T03:31:14.897Z,0.10
2022-09-21T03:32:14.862Z,0.20
2022-09-21T03:33:14.848Z,0.10
2022-09-21T03:34:14.837Z,0.20
2022-09-21T03:35:14.823Z,0.20
2022-09-21T03:36:14.812Z,0.10
2022-09-21T03:38:14.786Z,0.10
2022-09-21T03:39:14.772Z,0.20
2022-09-21T03:40:14.819Z,0.20
2022-09-21T03:41:14.747Z,0.20
2022-09-21T03:42:14.737Z,0.20
2022-09-21T03:43:14.743Z,0.10
2022-09-21T03:44:14.711Z,0.20
2022-09-21T03:45:14.697Z,0.10
2022-09-21T03:46:14.723Z,0.20
2022-09-21T03:47:14.672Z,0.20
2022-09-21T03:49:14.646Z,0.20
2022-09-21T03:50:14.634Z,0.10
2022-09-21T03:51:14.622Z,0.20
2022-09-21T03:52:14.609Z,0.10
2022-09-21T03:53:14.596Z,0.20
2022-09-21T03:54:14.584Z,0.20
2022-09-21T03:55:14.571Z,0.20
2022-09-21T03:56:14.559Z,0.20
2022-09-21T03:57:14.545Z,0.20
2022-09-21T03:58:14.536Z,0.20
2022-09-21T04:00:14.509Z,0.20
2022-09-21T04:01:14.574Z,0.20
2022-09-21T04:02:14.665Z,0.20
2022-09-21T04:03:14.470Z,0.20
2022-09-21T04:04:14.462Z,0.20
2022-09-21T04:05:14.446Z,0.20
2022-09-21T04:06:14.434Z,0.20
2022-09-21T04:07:14.421Z,0.20
2022-09-21T04:08:14.410Z,0.20
2022-09-21T04:09:14.396Z,0.20
2022-09-21T04:11:14.371Z,0.20
2022-09-21T04:12:14.361Z,0.20
2022-09-21T04:13:14.345Z,0.20
2022-09-21T04:14:14.335Z,0.20
2022-09-21T04:15:14.343Z,0.20
2022-09-21T04:16:14.382Z,0.20
2022-09-21T04:17:14.297Z,0.30
2022-09-21T04:18:14.285Z,0.20
2022-09-21T04:19:14.275Z,0.20
2022-09-21T04:20:14.262Z,0.20
2022-09-21T04:22:14.235Z,0.20
2022-09-21T04:23:14.220Z,0.20
2022-09-21T04:24:14.210Z,0.20
2022-09-21T04:25:14.199Z,0.20
2022-09-21T04:26:14.184Z,0.20
2022-09-21T04:27:14.173Z,0.30
2022-09-21T04:28:14.159Z,0.20
2022-09-21T04:29:14.148Z,0.30
2022-09-21T04:30:14.134Z,0.20
2022-09-21T04:31:14.212Z,0.20
2022-09-21T04:33:14.098Z,0.20
2022-09-21T04:34:14.085Z,0.20
2022-09-21T04:35:14.073Z,0.10
2022-09-21T04:36:14.059Z,0.20
2022-09-21T04:37:14.048Z,0.20
2022-09-21T04:38:14.033Z,0.20
2022-09-21T04:39:14.022Z,0.20
2022-09-21T04:40:14.041Z,0.20
2022-09-21T04:41:13.998Z,0.10
2022-09-21T04:42:13.983Z,0.20
2022-09-21T04:44:13.959Z,0.20
2022-09-21T04:45:13.946Z,0.20
2022-09-21T04:46:13.970Z,0.20
2022-09-21T04:47:14.020Z,0.20
2022-09-21T04:48:13.908Z,0.10
2022-09-21T04:49:13.898Z,0.20
2022-09-21T04:50:13.884Z,0.10
2022-09-21T04:51:13.872Z,0.20
2022-09-21T04:52:18.852Z,0.20
2022-09-21T04:53:13.848Z,0.20
2022-09-21T04:55:13.822Z,0.10
2022-09-21T04:56:13.808Z,0.20
2022-09-21T04:57:13.798Z,0.10
2022-09-21T04:58:13.783Z,0.20
2022-09-21T04:59:13.771Z,0.20
2022-09-21T05:00:13.759Z,0.20
2022-09-21T05:01:13.768Z,0.20
2022-09-21T05:02:13.733Z,0.10
2022-09-21T05:03:13.874Z,0.20
2022-09-21T05:04:13.706Z,0.20
2022-09-21T05:06:13.681Z,0.20
2022-09-21T05:07:13.671Z,0.20
2022-09-21T05:08:13.655Z,0.20
2022-09-21T05:09:13.644Z,0.10
2022-09-21T05:10:13.634Z,0.20
2022-09-21T05:11:13.618Z,0.10
2022-09-21T05:12:13.604Z,0.20
2022-09-21T05:13:16.715Z,0.20
2022-09-21T05:14:13.577Z,0.20
2022-09-21T05:15:13.565Z,0.10
2022-09-21T05:17:13.540Z,1.79
2022-09-21T05:18:13.526Z,0.20
2022-09-21T05:19:13.576Z,0.20
2022-09-21T05:20:13.500Z,0.20
2022-09-21T05:21:13.491Z,0.20
2022-09-21T05:22:13.475Z,0.20
2022-09-21T05:23:16.748Z,0.20
2022-09-21T05:24:13.450Z,0.20
2022-09-21T05:25:13.440Z,0.20
2022-09-21T05:26:13.425Z,0.20
2022-09-21T05:28:13.406Z,0.20
2022-09-21T05:29:13.389Z,0.20
2022-09-21T05:30:13.384Z,0.20
2022-09-21T05:31:18.087Z,0.20
2022-09-21T05:32:13.361Z,0.10
2022-09-21T05:33:13.339Z,0.20
2022-09-21T05:34:13.324Z,0.20
2022-09-21T05:35:13.341Z,0.20
2022-09-21T05:36:13.301Z,0.20
2022-09-21T05:37:13.288Z,0.20
2022-09-21T05:39:13.263Z,0.20
2022-09-21T05:40:13.332Z,0.20
2022-09-21T05:41:13.239Z,0.10
2022-09-21T05:42:13.224Z,0.20
2022-09-21T05:43:13.213Z,0.20
2022-09-21T05:44:13.204Z,0.20
2022-09-21T05:45:13.190Z,0.20
2022-09-21T05:46:13.303Z,0.20
2022-09-21T05:47:13.164Z,0.30
2022-09-21T05:48:13.150Z,3.79
2022-09-21T05:50:13.124Z,32.59
2022-09-21T05:51:13.138Z,32.79
2022-09-21T05:52:13.099Z,32.00
2022-09-21T05:53:13.089Z,32.70
2022-09-21T05:54:13.075Z,32.59
2022-09-21T05:55:13.067Z,33.50
2022-09-21T05:56:13.050Z,32.29
2022-09-21T05:57:13.044Z,33.29
2022-09-21T05:58:13.027Z,32.70
2022-09-21T05:59:13.015Z,32.40
2022-09-21T06:01:13.011Z,34.59
2022-09-21T06:02:13.035Z,34.09
2022-09-21T06:03:17.441Z,34.09
2022-09-21T06:04:12.949Z,34.00
2022-09-21T06:05:12.940Z,33.09
2022-09-21T06:06:12.925Z,32.90
2022-09-21T06:07:12.949Z,33.59
2022-09-21T06:08:12.899Z,33.50
2022-09-21T06:09:12.887Z,33.70
2022-09-21T06:10:12.875Z,33.79
2022-09-21T06:12:12.850Z,31.10
2022-09-21T06:13:12.838Z,30.79
2022-09-21T06:14:12.825Z,29.60
2022-09-21T06:15:12.814Z,30.79
2022-09-21T06:16:12.800Z,29.70
2022-09-21T06:17:12.788Z,30.20
2022-09-21T06:18:17.491Z,28.60
2022-09-21T06:19:12.767Z,30.60
2022-09-21T06:20:12.749Z,29.39
2022-09-21T06:21:12.737Z,30.50
2022-09-21T06:23:12.767Z,29.50
2022-09-21T06:24:12.699Z,28.50
2022-09-21T06:25:12.687Z,27.89
2022-09-21T06:26:12.673Z,26.00
2022-09-21T06:27:12.664Z,26.00
2022-09-21T06:28:12.650Z,26.10
2022-09-21T06:29:12.637Z,26.39
2022-09-21T06:30:12.622Z,25.70
2022-09-21T06:31:12.648Z,25.20
2022-09-21T06:32:12.598Z,23.60
2022-09-21T06:34:12.574Z,21.79
2022-09-21T06:35:12.560Z,23.29
2022-09-21T06:36:12.546Z,23.00
2022-09-21T06:37:12.536Z,22.60
2022-09-21T06:38:12.520Z,22.50
2022-09-21T06:39:12.532Z,22.20
2022-09-21T06:40:12.530Z,22.89
2022-09-21T06:41:15.231Z,23.60
2022-09-21T06:42:12.470Z,21.89
2022-09-21T06:43:12.456Z,22.89
2022-09-21T06:45:12.430Z,25.00
2022-09-21T06:46:12.483Z,25.70
2022-09-21T06:47:12.406Z,24.70
2022-09-21T06:48:12.392Z,24.70
2022-09-21T06:49:12.378Z,26.70
2022-09-21T06:50:12.362Z,25.29
2022-09-21T06:51:12.351Z,25.20
2022-09-21T06:52:12.339Z,25.60
2022-09-21T06:53:12.327Z,24.89
2022-09-21T06:54:12.312Z,24.39
2022-09-21T06:56:12.290Z,25.00
2022-09-21T06:57:12.271Z,26.29
2022-09-21T06:58:12.257Z,25.29
2022-09-21T06:59:12.245Z,25.79
2022-09-21T07:00:12.230Z,24.79
2022-09-21T07:01:12.346Z,25.10
2022-09-21T07:02:12.296Z,25.29
2022-09-21T07:03:12.200Z,24.50
2022-09-21T07:04:12.176Z,24.89
2022-09-21T07:05:12.166Z,25.50
2022-09-21T07:07:12.140Z,26.29
2022-09-21T07:10:17.164Z,32.59
2022-09-21T07:11:14.123Z,35.70
2022-09-21T07:12:12.071Z,38.20
2022-09-21T07:13:12.059Z,34.79
2022-09-21T07:14:12.044Z,31.89
2022-09-21T07:15:12.040Z,33.59
2022-09-21T07:16:12.063Z,35.79
2022-09-21T07:18:11.990Z,37.70
2022-09-21T07:19:12.271Z,35.70
2022-09-21T07:20:11.965Z,36.79
2022-09-21T07:21:11.957Z,37.00
2022-09-21T07:22:11.939Z,36.59
2022-09-21T07:23:11.926Z,35.90
2022-09-21T07:24:12.718Z,36.09
2022-09-21T07:25:11.900Z,36.70
2022-09-21T07:26:11.887Z,36.20
2022-09-21T07:27:11.895Z,36.79
2022-09-21T07:29:11.849Z,35.09
2022-09-21T07:30:11.832Z,34.00
2022-09-21T07:31:11.838Z,35.00
2022-09-21T07:32:11.807Z,34.09
2022-09-21T07:33:11.797Z,36.40
2022-09-21T07:34:11.781Z,37.09
2022-09-21T07:35:11.776Z,43.40
2022-09-21T07:36:11.757Z,44.79
2022-09-21T07:37:11.745Z,47.70
2022-09-21T07:38:11.731Z,51.40
2022-09-21T07:40:11.752Z,56.20
2022-09-21T07:41:11.691Z,54.59
2022-09-21T07:42:11.679Z,54.70
2022-09-21T07:43:11.690Z,53.59
2022-09-21T07:44:11.652Z,54.09
2022-09-21T07:45:11.655Z,56.50
2022-09-21T07:46:11.626Z,57.00
2022-09-21T07:47:11.616Z,54.20
2022-09-21T07:48:11.601Z,56.90
2022-09-21T07:49:11.594Z,58.79
2022-09-21T07:51:11.564Z,56.09
2022-09-21T07:52:11.550Z,55.70
2022-09-21T07:53:11.537Z,55.59
2022-09-21T07:54:11.525Z,54.79
2022-09-21T07:55:11.509Z,50.79
2022-09-21T07:56:11.496Z,51.70
2022-09-21T07:57:11.486Z,55.59
2022-09-21T07:58:11.470Z,54.79
2022-09-21T07:59:11.484Z,55.20
2022-09-21T08:00:11.444Z,56.29
2022-09-21T08:02:11.459Z,59.59
2022-09-21T08:03:11.407Z,60.09
2022-09-21T08:04:11.394Z,57.70
2022-09-21T08:05:11.383Z,58.79
2022-09-21T08:06:11.367Z,49.00
2022-09-21T08:07:11.357Z,43.00
2022-09-21T08:08:11.342Z,47.59
2022-09-21T08:09:11.330Z,43.50
2022-09-21T08:10:11.321Z,43.59
2022-09-21T08:11:11.306Z,44.59
2022-09-21T08:13:11.280Z,38.70
2022-09-21T08:14:11.266Z,38.29
2022-09-21T08:15:30.613Z,42.70
2022-09-21T08:16:13.288Z,41.90
2022-09-21T08:17:11.229Z,38.59
2022-09-21T08:18:11.215Z,39.90
2022-09-21T08:19:11.204Z,37.70
2022-09-21T08:20:11.188Z,38.70
2022-09-21T08:21:12.155Z,38.90
2022-09-21T08:22:11.162Z,41.79
2022-09-21T08:24:11.136Z,34.00
2022-09-21T08:25:11.124Z,32.00
2022-09-21T08:26:11.110Z,37.59
2022-09-21T08:27:11.099Z,40.00
2022-09-21T08:28:11.082Z,39.40
2022-09-21T08:29:11.073Z,40.90
2022-09-21T08:30:11.058Z,34.29
2022-09-21T08:31:11.281Z,30.60
2022-09-21T08:32:22.825Z,33.79
2022-09-21T08:34:11.005Z,36.00
2022-09-21T08:35:10.996Z,31.39
2022-09-21T08:36:10.980Z,32.00
2022-09-21T08:37:10.966Z,35.00
2022-09-21T08:38:10.959Z,35.59
2022-09-21T08:39:10.941Z,34.59
2022-09-21T08:40:10.969Z,30.10
2022-09-21T08:41:10.914Z,30.89
2022-09-21T08:42:10.906Z,35.59
2022-09-21T08:43:10.890Z,34.90
2022-09-21T08:45:10.861Z,31.50
2022-09-21T08:46:11.027Z,31.00
2022-09-21T08:47:10.858Z,30.50
2022-09-21T08:48:10.825Z,34.70
2022-09-21T08:49:10.809Z,35.59
2022-09-21T08:50:10.799Z,33.09
2022-09-21T08:51:10.784Z,35.50
2022-09-21T08:52:13.487Z,36.09
2022-09-21T08:53:10.759Z,37.50
2022-09-21T08:54:10.745Z,36.00
2022-09-21T08:56:10.719Z,42.79
2022-09-21T08:57:10.705Z,35.59
2022-09-21T08:58:10.693Z,35.50
2022-09-21T08:59:10.680Z,31.70
2022-09-21T09:00:10.668Z,34.40
2022-09-21T09:01:10.728Z,37.90
2022-09-21T09:02:10.735Z,33.09
2022-09-21T09:03:10.655Z,31.89
2022-09-21T09:04:10.619Z,31.00
2022-09-21T09:05:10.602Z,30.00
2022-09-21T09:07:10.575Z,28.20
2022-09-21T09:08:10.565Z,26.70
2022-09-21T09:09:10.607Z,28.60
2022-09-21T09:10:10.537Z,34.59
2022-09-21T09:11:10.522Z,30.89
2022-09-21T09:12:11.356Z,28.70
2022-09-21T09:13:10.497Z,32.40
2022-09-21T09:14:10.485Z,32.70
2022-09-21T09:15:10.471Z,36.59
2022-09-21T09:16:10.508Z,35.50
2022-09-21T09:18:10.433Z,29.89
2022-09-21T09:19:10.444Z,28.89
2022-09-21T09:20:10.407Z,31.00
2022-09-21T09:21:10.572Z,31.89
2022-09-21T09:22:10.381Z,32.00
2022-09-21T09:23:10.366Z,29.60
2022-09-21T09:24:10.356Z,29.70
2022-09-21T09:25:10.341Z,30.00
2022-09-21T09:26:10.332Z,33.09
2022-09-21T09:27:10.316Z,31.39
2022-09-21T09:29:10.295Z,33.79
2022-09-21T09:30:10.280Z,34.50
2022-09-21T09:31:10.294Z,34.09
2022-09-21T09:32:10.252Z,32.90
2022-09-21T09:33:10.242Z,28.79
2022-09-21T09:34:10.225Z,32.40
2022-09-21T09:35:10.235Z,32.09
2022-09-21T09:36:10.201Z,34.29
2022-09-21T09:37:10.191Z,34.20
2022-09-21T09:38:10.173Z,35.79
2022-09-21T09:40:10.216Z,35.50
2022-09-21T09:41:10.135Z,36.29
2022-09-21T09:42:10.122Z,29.70
2022-09-21T09:43:10.114Z,31.00
2022-09-21T09:44:10.096Z,41.09
2022-09-21T09:45:10.084Z,37.79
2022-09-21T09:46:12.807Z,35.59
2022-09-21T09:47:10.058Z,35.20
2022-09-21T09:48:10.047Z,35.70
2022-09-21T09:49:10.033Z,40.40
2022-09-21T09:51:10.031Z,43.59
2022-09-21T09:52:09.998Z,41.40
2022-09-21T09:53:09.984Z,40.40
2022-09-21T09:54:10.431Z,42.09
2022-09-21T09:55:09.959Z,38.20
2022-09-21T09:56:09.953Z,41.00
2022-09-21T09:57:09.933Z,41.70
2022-09-21T09:58:09.922Z,37.59
2022-09-21T09:59:09.916Z,38.40
2022-09-21T10:00:09.899Z,40.90
2022-09-21T10:02:09.923Z,38.70
2022-09-21T10:03:09.859Z,39.29
2022-09-21T10:04:09.911Z,38.00
2022-09-21T10:05:09.837Z,37.20
2022-09-21T10:06:09.826Z,38.29
2022-09-21T10:07:09.838Z,36.79
2022-09-21T10:08:09.805Z,38.40
2022-09-21T10:09:09.791Z,38.59
2022-09-21T10:10:09.780Z,38.09
2022-09-21T10:11:09.768Z,39.09
2022-09-21T10:13:09.746Z,33.59
2022-09-21T10:14:09.739Z,31.60
2022-09-21T10:15:09.723Z,37.59
2022-09-21T10:16:09.888Z,37.29
2022-09-21T10:17:09.700Z,36.40
2022-09-21T10:18:09.688Z,37.90
2022-09-21T10:19:09.673Z,39.00
2022-09-21T10:20:09.661Z,38.70
2022-09-21T10:21:09.668Z,37.50
2022-09-21T10:22:09.637Z,39.20
2022-09-21T10:24:09.615Z,42.20
2022-09-21T10:25:09.602Z,40.50
2022-09-21T10:26:09.594Z,37.79
2022-09-21T10:27:09.582Z,39.09
2022-09-21T10:28:09.569Z,36.90
2022-09-21T10:29:09.556Z,33.79
2022-09-21T10:30:09.545Z,38.70
2022-09-21T10:31:09.598Z,40.20
2022-09-21T10:32:14.247Z,40.59
2022-09-21T10:33:09.509Z,38.59
2022-09-21T10:35:09.486Z,39.40
2022-09-21T10:36:09.476Z,35.59
2022-09-21T10:37:09.462Z,38.70
2022-09-21T10:38:09.458Z,39.29
2022-09-21T10:39:09.464Z,38.00
2022-09-21T10:40:09.494Z,39.29
2022-09-21T10:41:09.418Z,38.59
2022-09-21T10:42:09.408Z,38.50
2022-09-21T10:43:09.417Z,26.10
2022-09-21T10:44:09.396Z,23.39
2022-09-21T10:46:09.404Z,34.70
2022-09-21T10:47:11.146Z,36.09
2022-09-21T10:48:09.347Z,27.29
2022-09-21T10:49:09.332Z,30.60
2022-09-21T10:50:09.326Z,36.09
2022-09-21T10:51:09.304Z,37.20
2022-09-21T10:52:09.294Z,37.09
2022-09-21T10:53:09.287Z,38.40
2022-09-21T10:54:09.382Z,37.40
2022-09-21T10:55:09.286Z,36.40
2022-09-21T10:57:09.234Z,35.79
2022-09-21T10:58:09.226Z,33.00
2022-09-21T10:59:09.211Z,29.89
2022-09-21T11:00:09.202Z,24.60
2022-09-21T11:01:09.226Z,26.39
2022-09-21T11:02:09.182Z,27.89
2022-09-21T11:03:09.227Z,28.20
2022-09-21T11:04:09.157Z,30.50
2022-09-21T11:05:09.143Z,29.29
2022-09-21T11:06:09.135Z,30.10
2022-09-21T11:08:09.110Z,30.70
2022-09-21T11:09:09.098Z,30.89
2022-09-21T11:10:09.087Z,30.60
2022-09-21T11:11:09.100Z,31.89
2022-09-21T11:12:09.065Z,32.20
2022-09-21T11:13:09.054Z,29.50
2022-09-21T11:14:09.044Z,30.60
2022-09-21T11:15:09.029Z,29.89
2022-09-21T11:16:09.073Z,30.89
2022-09-21T11:17:09.006Z,28.70
2022-09-21T11:19:08.990Z,30.10
2022-09-21T11:20:08.973Z,26.29
2022-09-21T11:21:08.961Z,26.79
2022-09-21T11:22:08.954Z,30.00
2022-09-21T11:23:08.938Z,31.70
2022-09-21T11:24:08.966Z,31.00
2022-09-21T11:25:08.916Z,28.29
2022-09-21T11:26:08.905Z,29.70
2022-09-21T11:27:08.916Z,32.40
2022-09-21T11:28:08.883Z,32.79
2022-09-21T11:30:08.861Z,34.50
2022-09-21T11:31:08.927Z,32.59
2022-09-21T11:32:08.838Z,31.10
2022-09-21T11:33:08.824Z,34.40
2022-09-21T11:34:08.817Z,36.20
2022-09-21T11:35:08.802Z,31.00
2022-09-21T11:36:08.794Z,30.00
2022-09-21T11:37:08.777Z,30.89
2022-09-21T11:38:08.768Z,22.10
2022-09-21T11:39:08.827Z,28.70
2022-09-21T11:41:08.733Z,28.89
2022-09-21T11:42:08.725Z,31.29
2022-09-21T11:43:08.734Z,32.70
2022-09-21T11:44:10.860Z,29.39
2022-09-21T11:45:08.687Z,31.20
2022-09-21T11:46:08.759Z,31.00
2022-09-21T11:47:08.666Z,31.29
2022-09-21T11:48:08.653Z,30.50
2022-09-21T11:49:08.642Z,29.60
2022-09-21T11:50:29.070Z,29.50
2022-09-21T11:52:08.611Z,26.00
2022-09-21T11:53:08.595Z,26.29
2022-09-21T11:54:08.586Z,27.79
2022-09-21T11:55:08.573Z,27.50
2022-09-21T11:56:08.563Z,28.50
2022-09-21T11:57:08.547Z,25.20
2022-09-21T11:58:08.538Z,25.50
2022-09-21T11:59:08.572Z,27.10
2022-09-21T12:00:08.514Z,27.20
2022-09-21T12:01:08.502Z,26.79
2022-09-21T12:03:08.476Z,26.70
2022-09-21T12:04:08.465Z,23.50
2022-09-21T12:05:08.453Z,24.20
2022-09-21T12:06:08.443Z,27.20
2022-09-21T12:07:08.431Z,27.89
2022-09-21T12:08:08.422Z,27.79
2022-09-21T12:09:08.427Z,26.39
2022-09-21T12:10:10.423Z,27.70
2022-09-21T12:11:08.390Z,28.20
2022-09-21T12:12:08.378Z,27.50
2022-09-21T12:14:08.355Z,25.70
2022-09-21T12:15:08.452Z,26.70
2022-09-21T12:16:08.332Z,23.79
2022-09-21T12:17:08.380Z,25.29
2022-09-21T12:18:08.309Z,26.00
2022-09-21T12:19:08.295Z,23.50
2022-09-21T12:20:08.284Z,24.10
2022-09-21T12:21:08.276Z,24.10
2022-09-21T12:22:08.263Z,25.20
2022-09-21T12:23:08.249Z,25.20
2022-09-21T12:25:08.229Z,28.50
2022-09-21T12:26:08.220Z,26.79
2022-09-21T12:27:08.207Z,28.89
2022-09-21T12:28:08.195Z,26.60
2022-09-21T12:29:08.183Z,24.79
2022-09-21T12:30:08.176Z,26.89
2022-09-21T12:31:08.250Z,23.00
2022-09-21T12:32:08.153Z,25.89
2022-09-21T12:33:08.140Z,23.70
2022-09-21T12:34:08.131Z,25.00
2022-09-21T12:36:08.110Z,22.89
2022-09-21T12:37:08.095Z,24.60
2022-09-21T12:38:08.089Z,23.60
2022-09-21T12:39:08.075Z,25.00
2022-09-21T12:40:08.152Z,22.50
2022-09-21T12:41:08.050Z,26.20
2022-09-21T12:42:08.038Z,25.29
2022-09-21T12:43:09.374Z,24.20
2022-09-21T12:44:08.049Z,23.50
2022-09-21T12:45:08.002Z,26.10
2022-09-21T12:47:08.004Z,26.00
2022-09-21T12:48:07.967Z,26.79
2022-09-21T12:49:07.955Z,23.89
2022-09-21T12:50:07.944Z,23.79
2022-09-21T12:51:07.931Z,26.39
2022-09-21T12:52:07.920Z,25.29
2022-09-21T12:53:07.906Z,24.89
2022-09-21T12:54:07.895Z,24.89
2022-09-21T12:55:07.899Z,23.89
2022-09-21T12:56:09.978Z,24.70
2022-09-21T12:58:15.557Z,24.89
2022-09-21T12:59:09.834Z,25.50
2022-09-21T13:00:07.823Z,26.60
2022-09-21T13:01:07.871Z,27.50
2022-09-21T13:02:07.965Z,25.60
2022-09-21T13:03:09.922Z,27.60
2022-09-21T13:04:07.774Z,27.79
2022-09-21T13:05:07.763Z,26.50
2022-09-21T13:06:07.749Z,23.60
2022-09-21T13:07:07.738Z,22.50
2022-09-21T13:09:10.076Z,29.39
2022-09-21T13:10:07.709Z,28.60
2022-09-21T13:11:07.690Z,29.60
2022-09-21T13:12:07.677Z,27.89
2022-09-21T13:13:07.668Z,29.10
2022-09-21T13:14:07.653Z,26.79
2022-09-21T13:15:07.644Z,25.89
2022-09-21T13:16:07.684Z,29.29
2022-09-21T13:17:07.621Z,26.60
2022-09-21T13:18:07.610Z,26.79
2022-09-21T13:20:07.581Z,26.50
2022-09-21T13:21:07.572Z,23.89
2022-09-21T13:22:07.557Z,25.29
2022-09-21T13:23:07.546Z,25.20
2022-09-21T13:24:07.536Z,26.39
2022-09-21T13:25:07.520Z,26.50
2022-09-21T13:26:07.507Z,26.50
2022-09-21T13:27:07.495Z,24.39
2022-09-21T13:28:07.483Z,29.29
2022-09-21T13:29:07.472Z,24.20
2022-09-21T13:31:23.656Z,22.89
2022-09-21T13:32:07.505Z,22.60
2022-09-21T13:33:07.420Z,23.50
2022-09-21T13:34:07.406Z,24.00
2022-09-21T13:35:07.418Z,24.50
2022-09-21T13:36:07.382Z,23.20
2022-09-21T13:37:07.371Z,25.00
2022-09-21T13:38:07.356Z,25.89
2022-09-21T13:39:07.346Z,23.20
2022-09-21T13:40:09.474Z,22.70
2022-09-21T13:42:07.307Z,24.29
2022-09-21T13:43:07.296Z,23.20
2022-09-21T13:44:07.655Z,24.50
2022-09-21T13:45:07.329Z,24.00
2022-09-21T13:46:07.341Z,23.29
2022-09-21T13:47:07.245Z,22.39
2022-09-21T13:48:07.234Z,22.79
2022-09-21T13:49:07.222Z,24.20
2022-09-21T13:50:07.207Z,25.60
2022-09-21T13:51:07.220Z,25.39
2022-09-21T13:53:07.171Z,23.79
2022-09-21T13:54:07.216Z,23.20
2022-09-21T13:55:07.147Z,25.50
2022-09-21T13:56:07.132Z,26.10
2022-09-21T13:57:09.241Z,24.50
2022-09-21T13:58:07.109Z,25.70
2022-09-21T13:59:07.179Z,26.20
2022-09-21T14:00:07.082Z,25.20
2022-09-21T14:01:09.924Z,26.20
2022-09-21T14:03:07.114Z,26.60
2022-09-21T14:04:07.031Z,25.00
2022-09-21T14:05:07.022Z,27.50
2022-09-21T14:06:07.009Z,27.10
2022-09-21T14:07:07.019Z,24.10
2022-09-21T14:08:06.983Z,25.10
2022-09-21T14:09:06.972Z,26.29
2022-09-21T14:10:06.958Z,26.39
2022-09-21T14:11:06.946Z,27.00
2022-09-21T14:12:06.933Z,24.60
2022-09-21T14:14:06.909Z,24.39
2022-09-21T14:15:06.896Z,23.10
2022-09-21T14:16:06.927Z,23.39
2022-09-21T14:17:06.874Z,24.60
2022-09-21T14:18:06.859Z,24.79
2022-09-21T14:19:06.850Z,23.50
2022-09-21T14:20:07.194Z,24.29
2022-09-21T14:21:06.824Z,22.39
2022-09-21T14:22:06.810Z,24.00